Time,TemperatureF,DewpointF,PressureIn,WindDirection,WindDirectionDegrees,WindSpeedMPH,WindSpeedGustMPH,Humidity,HourlyPrecipIn,Conditions,Clouds,dailyrainin,SoftwareType,DateUTC
2013-05-02 00:10:00,35.1,18.0,30.68,NW,315,7.0,7.0,51,0.00,,,0.00,weatherlink.com 1.10,2013-05-02 06:10:00,
2013-05-02 00:25:00,36.2,18.0,30.68,NW,315,4.0,5.0,48,0.00,,,0.00,weatherlink.com 1.10,2013-05-02 06:25:00,
2013-05-02 00:40:00,34.5,19.0,30.68,NW,315,0.0,3.0,53,0.00,,,0.00,weatherlink.com 1.10,2013-05-02 06:40:00,
2013-05-02 00:55:00,35.3,20.0,30.68,NW,315,0.0,5.0,54,0.00,,,0.00,weatherlink.com 1.10,2013-05-02 06:55:00,
2013-05-02 01:10:00,34.6,19.0,30.68,NW,315,5.0,5.0,54,0.00,,,0.00,weatherlink.com 1.10,2013-05-02 07:10:00,
2013-05-02 01:25:00,34.1,23.0,30.68,NW,315,6.0,9.0,63,0.00,,,0.00,weatherlink.com 1.10,2013-05-02 07:25:00,
2013-05-02 01:40:00,32.8,23.0,30.67,NW,314,6.0,8.0,68,0.00,,,0.00,weatherlink.com 1.10,2013-05-02 07:40:00,
2013-05-02 01:55:00,32.1,23.0,30.68,NW,313,5.0,7.0,70,0.00,,,0.00,weatherlink.com 1.10,2013-05-02 07:55:00,
2013-05-02 02:10:00,31.6,23.0,30.68,NW,313,2.0,5.0,71,0.00,,,0.00,weatherlink.com 1.10,2013-05-02 08:10:00,
2013-05-02 02:25:00,31.0,23.0,30.68,NW,313,3.0,5.0,71,0.00,,,0.00,weatherlink.com 1.10,2013-05-02 08:25:00,
2013-05-02 02:40:00,31.8,20.0,30.68,NW,313,0.0,3.0,62,0.00,,,0.00,weatherlink.com 1.10,2013-05-02 08:40:00,
2013-05-02 02:55:00,31.6,20.0,30.68,NW,313,4.0,5.0,63,0.00,,,0.00,weatherlink.com 1.10,2013-05-02 08:55:00,
2013-05-02 03:10:00,33.4,20.0,30.68,WNW,292,10.0,10.0,59,0.00,,,0.00,weatherlink.com 1.10,2013-05-02 09:10:00,
2013-05-02 03:25:00,34.7,20.0,30.68,West,268,7.0,10.0,55,0.00,,,0.00,weatherlink.com 1.10,2013-05-02 09:25:00,
2013-05-02 03:40:00,34.7,19.0,30.68,West,268,7.0,11.0,53,0.00,,,0.00,weatherlink.com 1.10,2013-05-02 09:40:00,
2013-05-02 03:55:00,33.5,19.0,30.68,West,268,5.0,7.0,56,0.00,,,0.00,weatherlink.com 1.10,2013-05-02 09:55:00,
2013-05-02 04:10:00,32.6,19.0,30.69,West,268,2.0,9.0,58,0.00,,,0.00,weatherlink.com 1.10,2013-05-02 10:10:00,
2013-05-02 04:25:00,31.5,21.0,30.69,West,268,1.0,4.0,64,0.00,,,0.00,weatherlink.com 1.10,2013-05-02 10:25:00,
2013-05-02 04:40:00,29.9,21.0,30.70,West,268,1.0,4.0,69,0.00,,,0.00,weatherlink.com 1.10,2013-05-02 10:40:00,
2013-05-02 04:55:00,29.7,21.0,30.69,West,268,2.0,3.0,71,0.00,,,0.00,weatherlink.com 1.10,2013-05-02 10:55:00,
2013-05-02 05:10:00,29.4,21.0,30.70,West,268,0.0,4.0,71,0.00,,,0.00,weatherlink.com 1.10,2013-05-02 11:10:00,
2013-05-02 05:25:00,28.8,21.0,30.70,West,268,0.0,3.0,73,0.00,,,0.00,weatherlink.com 1.10,2013-05-02 11:25:00,
2013-05-02 05:40:00,28.5,22.0,30.71,West,268,3.0,4.0,75,0.00,,,0.00,weatherlink.com 1.10,2013-05-02 11:40:00,
2013-05-02 05:55:00,27.8,21.0,30.71,West,268,4.0,5.0,76,0.00,,,0.00,weatherlink.com 1.10,2013-05-02 11:55:00,
2013-05-02 06:10:00,27.5,21.0,30.71,West,268,0.0,3.0,77,0.00,,,0.00,weatherlink.com 1.10,2013-05-02 12:10:00,
2013-05-02 06:25:00,27.6,22.0,30.71,West,268,4.0,5.0,78,0.00,,,0.00,weatherlink.com 1.10,2013-05-02 12:25:00,
2013-05-02 06:40:00,27.8,22.0,30.72,West,268,1.0,3.0,78,0.00,,,0.00,weatherlink.com 1.10,2013-05-02 12:40:00,
2013-05-02 06:56:00,28.7,23.0,30.72,West,268,0.0,4.0,78,0.00,,,0.00,weatherlink.com 1.10,2013-05-02 12:56:00,
2013-05-02 07:11:00,30.2,24.0,30.72,West,268,5.0,5.0,78,0.00,,,0.00,weatherlink.com 1.10,2013-05-02 13:11:00,
2013-05-02 07:26:00,31.2,25.0,30.72,West,268,2.0,5.0,78,0.00,,,0.00,weatherlink.com 1.10,2013-05-02 13:26:00,
2013-05-02 07:41:00,32.5,25.0,30.71,West,268,4.0,5.0,74,0.00,,,0.00,weatherlink.com 1.10,2013-05-02 13:41:00,
2013-05-02 07:56:00,34.3,25.0,30.71,West,268,2.0,3.0,70,0.00,,,0.00,weatherlink.com 1.10,2013-05-02 13:56:00,
2013-05-02 08:11:00,35.2,26.0,30.71,West,268,0.0,4.0,69,0.00,,,0.00,weatherlink.com 1.10,2013-05-02 14:11:00,
2013-05-02 08:26:00,35.9,25.0,30.71,West,268,3.0,4.0,66,0.00,,,0.00,weatherlink.com 1.10,2013-05-02 14:26:00,
2013-05-02 08:41:00,36.6,25.0,30.70,West,268,0.0,5.0,62,0.00,,,0.00,weatherlink.com 1.10,2013-05-02 14:41:00,
2013-05-02 08:56:00,37.8,24.0,30.70,West,268,2.0,3.0,57,0.00,,,0.00,weatherlink.com 1.10,2013-05-02 14:56:00,
2013-05-02 09:11:00,39.4,24.0,30.69,West,268,2.0,3.0,55,0.00,,,0.00,weatherlink.com 1.10,2013-05-02 15:11:00,
2013-05-02 09:26:00,40.9,22.0,30.69,West,268,1.0,6.0,48,0.00,,,0.00,weatherlink.com 1.10,2013-05-02 15:26:00,
2013-05-02 09:42:00,42.1,20.0,30.68,West,268,2.0,6.0,41,0.00,,,0.00,weatherlink.com 1.10,2013-05-02 15:42:00,
2013-05-02 09:56:00,42.8,19.0,30.67,West,268,0.0,6.0,38,0.00,,,0.00,weatherlink.com 1.10,2013-05-02 15:56:00,
2013-05-02 10:11:00,44.3,19.0,30.66,West,268,2.0,7.0,36,0.00,,,0.00,weatherlink.com 1.10,2013-05-02 16:11:00,
2013-05-02 10:26:00,45.2,20.0,30.66,West,268,5.0,5.0,36,0.00,,,0.00,weatherlink.com 1.10,2013-05-02 16:26:00,
2013-05-02 10:41:00,45.9,19.0,30.65,West,268,4.0,6.0,34,0.00,,,0.00,weatherlink.com 1.10,2013-05-02 16:41:00,
2013-05-02 10:56:00,46.4,19.0,30.64,West,268,1.0,6.0,34,0.00,,,0.00,weatherlink.com 1.10,2013-05-02 16:56:00,
2013-05-02 11:11:00,47.0,18.0,30.64,SW,236,1.0,8.0,32,0.00,,,0.00,weatherlink.com 1.10,2013-05-02 17:11:00,
2013-05-02 11:27:00,48.3,17.0,30.63,SW,236,0.0,4.0,29,0.00,,,0.00,weatherlink.com 1.10,2013-05-02 17:27:00,
2013-05-02 11:42:00,49.1,16.0,30.62,SW,229,1.0,8.0,27,0.00,,,0.00,weatherlink.com 1.10,2013-05-02 17:42:00,
2013-05-02 11:57:00,50.2,16.0,30.61,SW,229,5.0,8.0,26,0.00,,,0.00,weatherlink.com 1.10,2013-05-02 17:57:00,
2013-05-02 12:12:00,51.3,19.0,30.60,South,183,6.0,9.0,28,0.00,,,0.00,weatherlink.com 1.10,2013-05-02 18:12:00,
2013-05-02 12:27:00,51.6,18.0,30.59,SE,138,4.0,9.0,26,0.00,,,0.00,weatherlink.com 1.10,2013-05-02 18:27:00,
2013-05-02 12:42:00,52.5,16.0,30.58,SSE,148,6.0,14.0,24,0.00,,,0.00,weatherlink.com 1.10,2013-05-02 18:42:00,
2013-05-02 12:57:00,53.2,17.0,30.56,SE,128,14.0,15.0,24,0.00,,,0.00,weatherlink.com 1.10,2013-05-02 18:57:00,
2013-05-02 13:12:00,53.9,18.0,30.55,SE,139,13.0,17.0,24,0.00,,,0.00,weatherlink.com 1.10,2013-05-02 19:12:00,
2013-05-02 13:27:00,54.4,16.0,30.54,SSE,154,4.0,14.0,22,0.00,,,0.00,weatherlink.com 1.10,2013-05-02 19:27:00,
2013-05-02 13:42:00,55.6,16.0,30.53,SSE,159,6.0,13.0,21,0.00,,,0.00,weatherlink.com 1.10,2013-05-02 19:42:00,
2013-05-02 14:12:00,56.7,16.0,30.50,South,180,5.0,13.0,20,0.00,,,0.00,weatherlink.com 1.10,2013-05-02 20:12:00,
2013-05-02 14:27:00,57.5,18.0,30.49,SE,126,7.0,13.0,21,0.00,,,0.00,weatherlink.com 1.10,2013-05-02 20:27:00,
2013-05-02 14:42:00,58.0,18.0,30.48,South,173,3.0,14.0,21,0.00,,,0.00,weatherlink.com 1.10,2013-05-02 20:42:00,
2013-05-02 14:57:00,58.0,17.0,30.47,SSE,167,3.0,9.0,20,0.00,,,0.00,weatherlink.com 1.10,2013-05-02 20:57:00,
2013-05-02 15:12:00,59.0,17.0,30.45,SSE,167,4.0,10.0,19,0.00,,,0.00,weatherlink.com 1.10,2013-05-02 21:12:00,
2013-05-02 15:27:00,59.6,17.0,30.44,SSE,149,8.0,12.0,19,0.00,,,0.00,weatherlink.com 1.10,2013-05-02 21:27:00,
2013-05-02 15:42:00,60.8,17.0,30.43,SE,132,9.0,14.0,18,0.00,,,0.00,weatherlink.com 1.10,2013-05-02 21:42:00,
2013-05-02 15:58:00,60.8,17.0,30.42,South,180,7.0,12.0,18,0.00,,,0.00,weatherlink.com 1.10,2013-05-02 21:58:00,
2013-05-02 16:13:00,61.9,18.0,30.41,SSE,148,9.0,14.0,18,0.00,,,0.00,weatherlink.com 1.10,2013-05-02 22:13:00,
2013-05-02 16:28:00,62.3,17.0,30.40,SE,126,9.0,14.0,17,0.00,,,0.00,weatherlink.com 1.10,2013-05-02 22:28:00,
2013-05-02 16:43:00,61.9,16.0,30.39,SE,142,10.0,18.0,17,0.00,,,0.00,weatherlink.com 1.10,2013-05-02 22:43:00,
2013-05-02 16:58:00,62.5,17.0,30.38,ESE,107,13.0,18.0,17,0.00,,,0.00,weatherlink.com 1.10,2013-05-02 22:58:00,
2013-05-02 17:13:00,63.3,18.0,30.37,ESE,123,16.0,19.0,17,0.00,,,0.00,weatherlink.com 1.10,2013-05-02 23:13:00,
2013-05-02 17:28:00,62.5,15.0,30.36,SE,124,14.0,21.0,16,0.00,,,0.00,weatherlink.com 1.10,2013-05-02 23:28:00,
2013-05-02 17:43:00,62.6,17.0,30.35,ESE,119,13.0,23.0,17,0.00,,,0.00,weatherlink.com 1.10,2013-05-02 23:43:00,
2013-05-02 17:58:00,62.1,17.0,30.34,ESE,110,14.0,22.0,17,0.00,,,0.00,weatherlink.com 1.10,2013-05-02 23:58:00,
2013-05-02 18:13:00,62.1,15.0,30.34,SE,130,9.0,19.0,16,0.00,,,0.00,weatherlink.com 1.10,2013-05-03 00:13:00,
2013-05-02 18:28:00,61.7,16.0,30.34,ESE,107,17.0,23.0,17,0.00,,,0.00,weatherlink.com 1.10,2013-05-03 00:28:00,
2013-05-02 18:43:00,61.1,17.0,30.33,ESE,107,24.0,26.0,18,0.00,,,0.00,weatherlink.com 1.10,2013-05-03 00:43:00,
2013-05-02 18:58:00,61.1,17.0,30.32,East,90,6.0,17.0,18,0.00,,,0.00,weatherlink.com 1.10,2013-05-03 00:58:00,
2013-05-02 19:13:00,60.3,16.0,30.32,East,96,6.0,15.0,18,0.00,,,0.00,weatherlink.com 1.10,2013-05-03 01:13:00,
2013-05-02 19:28:00,60.1,16.0,30.31,ESE,104,10.0,14.0,18,0.00,,,0.00,weatherlink.com 1.10,2013-05-03 01:28:00,
2013-05-02 19:43:00,58.6,17.0,30.31,ESE,108,16.0,22.0,20,0.00,,,0.00,weatherlink.com 1.10,2013-05-03 01:43:00,
2013-05-02 19:58:00,56.6,18.0,30.32,ESE,119,4.0,14.0,22,0.00,,,0.00,weatherlink.com 1.10,2013-05-03 01:58:00,
2013-05-02 20:13:00,55.1,19.0,30.31,ESE,117,12.0,22.0,24,0.00,,,0.00,weatherlink.com 1.10,2013-05-03 02:13:00,
2013-05-02 20:28:00,54.2,19.0,30.32,ESE,117,9.0,24.0,25,0.00,,,0.00,weatherlink.com 1.10,2013-05-03 02:28:00,
2013-05-02 20:43:00,53.3,19.0,30.32,ESE,117,4.0,15.0,26,0.00,,,0.00,weatherlink.com 1.10,2013-05-03 02:43:00,
2013-05-02 20:58:00,52.4,19.0,30.32,North,350,15.0,15.0,27,0.00,,,0.00,weatherlink.com 1.10,2013-05-03 02:58:00,
2013-05-02 21:13:00,52.6,18.0,30.32,NNE,16,0.0,11.0,26,0.00,,,0.00,weatherlink.com 1.10,2013-05-03 03:13:00,
2013-05-02 21:28:00,52.1,19.0,30.32,NNE,16,3.0,5.0,27,0.00,,,0.00,weatherlink.com 1.10,2013-05-03 03:28:00,
2013-05-02 21:43:00,51.2,19.0,30.32,NNE,16,4.0,6.0,28,0.00,,,0.00,weatherlink.com 1.10,2013-05-03 03:43:00,
2013-05-02 21:58:00,48.9,20.0,30.32,NNE,16,4.0,4.0,32,0.00,,,0.00,weatherlink.com 1.10,2013-05-03 03:58:00,
2013-05-02 22:13:00,46.6,19.0,30.32,NNE,16,8.0,10.0,34,0.00,,,0.00,weatherlink.com 1.10,2013-05-03 04:13:00,
2013-05-02 22:28:00,45.4,19.0,30.32,NNE,16,9.0,10.0,35,0.00,,,0.00,weatherlink.com 1.10,2013-05-03 04:28:00,
2013-05-02 22:43:00,44.7,20.0,30.32,NNE,16,7.0,10.0,37,0.00,,,0.00,weatherlink.com 1.10,2013-05-03 04:43:00,
2013-05-02 22:58:00,44.2,19.0,30.32,NNE,16,6.0,8.0,37,0.00,,,0.00,weatherlink.com 1.10,2013-05-03 04:58:00,
2013-05-02 23:13:00,44.2,20.0,30.31,NNE,16,9.0,10.0,38,0.00,,,0.00,weatherlink.com 1.10,2013-05-03 05:13:00,
2013-05-02 23:28:00,43.2,20.0,30.31,NNE,16,7.0,8.0,39,0.00,,,0.00,weatherlink.com 1.10,2013-05-03 05:28:00,
2013-05-02 23:43:00,42.9,20.0,30.31,NNE,16,5.0,7.0,40,0.00,,,0.00,weatherlink.com 1.10,2013-05-03 05:43:00,
2013-05-02 23:58:00,42.4,20.0,30.30,NNE,16,3.0,5.0,41,0.00,,,0.00,weatherlink.com 1.10,2013-05-03 05:58:00,